sensor_id;sensor_type;location;lat;lon;timestamp;P1;durP1;ratioP1;P2;durP2;ratioP2
19758;SDS011;10038;42.662;23.278;2023-04-16T00:01:31;5.70;;;3.70;;
19758;SDS011;10038;42.662;23.278;2023-04-16T00:03:58;5.20;;;2.97;;
19758;SDS011;10038;42.662;23.278;2023-04-16T00:06:24;3.43;;;2.07;;
19758;SDS011;10038;42.662;23.278;2023-04-16T00:08:52;4.60;;;2.83;;
19758;SDS011;10038;42.662;23.278;2023-04-16T00:11:20;3.47;;;2.43;;
19758;SDS011;10038;42.662;23.278;2023-04-16T00:13:47;10.37;;;3.07;;
19758;SDS011;10038;42.662;23.278;2023-04-16T00:16:14;3.40;;;2.53;;
19758;SDS011;10038;42.662;23.278;2023-04-16T00:18:41;4.17;;;2.73;;
19758;SDS011;10038;42.662;23.278;2023-04-16T00:21:08;9.83;;;4.20;;
19758;SDS011;10038;42.662;23.278;2023-04-16T00:23:35;10.63;;;4.87;;
19758;SDS011;10038;42.662;23.278;2023-04-16T00:26:02;11.50;;;4.70;;
19758;SDS011;10038;42.662;23.278;2023-04-16T00:28:30;11.90;;;4.97;;
19758;SDS011;10038;42.662;23.278;2023-04-16T00:30:57;9.30;;;4.40;;
19758;SDS011;10038;42.662;23.278;2023-04-16T00:33:24;10.90;;;5.10;;
19758;SDS011;10038;42.662;23.278;2023-04-16T00:35:51;8.43;;;5.07;;
19758;SDS011;10038;42.662;23.278;2023-04-16T00:38:18;11.13;;;5.30;;
19758;SDS011;10038;42.662;23.278;2023-04-16T00:43:38;27.53;;;4.20;;
19758;SDS011;10038;42.662;23.278;2023-04-16T00:46:05;7.73;;;3.03;;
19758;SDS011;10038;42.662;23.278;2023-04-16T00:48:32;5.67;;;2.80;;
19758;SDS011;10038;42.662;23.278;2023-04-16T00:51:00;3.73;;;2.63;;
19758;SDS011;10038;42.662;23.278;2023-04-16T00:53:27;4.30;;;3.23;;
19758;SDS011;10038;42.662;23.278;2023-04-16T00:55:54;3.27;;;2.50;;
19758;SDS011;10038;42.662;23.278;2023-04-16T00:58:22;5.30;;;2.83;;
19758;SDS011;10038;42.662;23.278;2023-04-16T01:00:51;5.10;;;3.53;;
19758;SDS011;10038;42.662;23.278;2023-04-16T01:03:18;6.40;;;3.50;;
19758;SDS011;10038;42.662;23.278;2023-04-16T01:05:45;6.47;;;3.10;;
19758;SDS011;10038;42.662;23.278;2023-04-16T01:08:14;7.03;;;3.50;;
19758;SDS011;10038;42.662;23.278;2023-04-16T01:10:42;6.13;;;4.10;;
19758;SDS011;10038;42.662;23.278;2023-04-16T01:13:10;8.93;;;4.40;;
19758;SDS011;10038;42.662;23.278;2023-04-16T01:15:37;7.60;;;3.87;;
19758;SDS011;10038;42.662;23.278;2023-04-16T01:18:13;5.50;;;3.53;;
19758;SDS011;10038;42.662;23.278;2023-04-16T01:20:41;6.80;;;3.53;;
19758;SDS011;10038;42.662;23.278;2023-04-16T01:23:09;6.97;;;3.70;;
19758;SDS011;10038;42.662;23.278;2023-04-16T01:25:36;3.67;;;2.70;;
19758;SDS011;10038;42.662;23.278;2023-04-16T01:28:04;3.90;;;3.07;;
19758;SDS011;10038;42.662;23.278;2023-04-16T01:30:30;5.47;;;2.40;;
19758;SDS011;10038;42.662;23.278;2023-04-16T01:32:57;2.77;;;2.10;;
19758;SDS011;10038;42.662;23.278;2023-04-16T01:35:24;4.60;;;2.40;;
19758;SDS011;10038;42.662;23.278;2023-04-16T01:37:57;7.40;;;2.57;;
19758;SDS011;10038;42.662;23.278;2023-04-16T01:40:24;4.20;;;2.53;;
19758;SDS011;10038;42.662;23.278;2023-04-16T01:42:51;10.73;;;2.80;;
19758;SDS011;10038;42.662;23.278;2023-04-16T01:45:18;2.50;;;2.00;;
19758;SDS011;10038;42.662;23.278;2023-04-16T01:47:45;6.17;;;2.23;;
19758;SDS011;10038;42.662;23.278;2023-04-16T01:50:12;4.33;;;2.30;;
19758;SDS011;10038;42.662;23.278;2023-04-16T01:52:39;6.03;;;2.97;;
19758;SDS011;10038;42.662;23.278;2023-04-16T01:55:08;9.50;;;1.97;;
19758;SDS011;10038;42.662;23.278;2023-04-16T01:57:35;7.53;;;3.73;;
19758;SDS011;10038;42.662;23.278;2023-04-16T02:00:03;13.73;;;10.40;;
19758;SDS011;10038;42.662;23.278;2023-04-16T02:02:31;17.33;;;9.30;;
19758;SDS011;10038;42.662;23.278;2023-04-16T02:04:58;26.20;;;15.53;;
19758;SDS011;10038;42.662;23.278;2023-04-16T02:07:25;18.57;;;10.87;;
19758;SDS011;10038;42.662;23.278;2023-04-16T02:09:52;10.77;;;6.50;;
19758;SDS011;10038;42.662;23.278;2023-04-16T02:12:21;12.30;;;3.97;;
19758;SDS011;10038;42.662;23.278;2023-04-16T02:14:48;7.40;;;3.90;;
19758;SDS011;10038;42.662;23.278;2023-04-16T02:17:15;10.50;;;2.97;;
19758;SDS011;10038;42.662;23.278;2023-04-16T02:19:42;6.43;;;2.83;;
19758;SDS011;10038;42.662;23.278;2023-04-16T02:22:09;6.90;;;2.73;;
19758;SDS011;10038;42.662;23.278;2023-04-16T02:24:36;5.93;;;2.50;;
19758;SDS011;10038;42.662;23.278;2023-04-16T02:27:03;5.73;;;2.50;;
19758;SDS011;10038;42.662;23.278;2023-04-16T02:29:31;4.53;;;2.70;;
19758;SDS011;10038;42.662;23.278;2023-04-16T02:31:58;4.67;;;2.60;;
19758;SDS011;10038;42.662;23.278;2023-04-16T02:34:25;3.07;;;2.17;;
19758;SDS011;10038;42.662;23.278;2023-04-16T02:36:52;3.90;;;2.87;;
19758;SDS011;10038;42.662;23.278;2023-04-16T02:39:19;2.63;;;2.10;;
19758;SDS011;10038;42.662;23.278;2023-04-16T02:41:46;7.20;;;2.47;;
19758;SDS011;10038;42.662;23.278;2023-04-16T02:44:13;2.47;;;2.10;;
19758;SDS011;10038;42.662;23.278;2023-04-16T02:46:42;5.10;;;2.53;;
19758;SDS011;10038;42.662;23.278;2023-04-16T02:49:09;4.37;;;2.53;;
19758;SDS011;10038;42.662;23.278;2023-04-16T02:51:35;3.47;;;2.20;;
19758;SDS011;10038;42.662;23.278;2023-04-16T02:54:02;5.87;;;3.07;;
19758;SDS011;10038;42.662;23.278;2023-04-16T02:56:30;3.00;;;2.20;;
19758;SDS011;10038;42.662;23.278;2023-04-16T02:58:56;5.33;;;3.00;;
19758;SDS011;10038;42.662;23.278;2023-04-16T03:01:23;4.87;;;2.97;;
19758;SDS011;10038;42.662;23.278;2023-04-16T03:03:54;3.63;;;2.40;;
19758;SDS011;10038;42.662;23.278;2023-04-16T03:06:20;5.20;;;2.37;;
19758;SDS011;10038;42.662;23.278;2023-04-16T03:08:47;5.43;;;2.80;;
19758;SDS011;10038;42.662;23.278;2023-04-16T03:11:14;6.50;;;3.57;;
19758;SDS011;10038;42.662;23.278;2023-04-16T03:13:42;7.57;;;3.33;;
19758;SDS011;10038;42.662;23.278;2023-04-16T03:16:09;8.50;;;3.50;;
19758;SDS011;10038;42.662;23.278;2023-04-16T03:18:36;5.57;;;3.07;;
19758;SDS011;10038;42.662;23.278;2023-04-16T03:21:04;12.23;;;3.17;;
19758;SDS011;10038;42.662;23.278;2023-04-16T03:23:31;6.47;;;3.23;;
19758;SDS011;10038;42.662;23.278;2023-04-16T03:25:59;4.20;;;3.40;;
19758;SDS011;10038;42.662;23.278;2023-04-16T03:28:26;7.13;;;4.40;;
19758;SDS011;10038;42.662;23.278;2023-04-16T03:30:53;3.57;;;3.23;;
19758;SDS011;10038;42.662;23.278;2023-04-16T03:33:20;3.73;;;3.30;;
19758;SDS011;10038;42.662;23.278;2023-04-16T03:35:53;5.80;;;3.50;;
19758;SDS011;10038;42.662;23.278;2023-04-16T03:38:23;4.60;;;3.37;;
19758;SDS011;10038;42.662;23.278;2023-04-16T03:40:50;5.27;;;3.77;;
19758;SDS011;10038;42.662;23.278;2023-04-16T03:43:17;4.10;;;3.17;;
19758;SDS011;10038;42.662;23.278;2023-04-16T03:45:44;10.53;;;3.60;;
19758;SDS011;10038;42.662;23.278;2023-04-16T03:48:12;4.90;;;3.17;;
19758;SDS011;10038;42.662;23.278;2023-04-16T03:50:43;7.50;;;3.03;;
19758;SDS011;10038;42.662;23.278;2023-04-16T03:53:10;4.90;;;3.57;;
19758;SDS011;10038;42.662;23.278;2023-04-16T03:55:39;6.53;;;3.43;;
19758;SDS011;10038;42.662;23.278;2023-04-16T03:58:06;7.80;;;3.37;;
19758;SDS011;10038;42.662;23.278;2023-04-16T04:00:33;8.73;;;4.13;;
19758;SDS011;10038;42.662;23.278;2023-04-16T04:03:00;4.97;;;3.40;;
19758;SDS011;10038;42.662;23.278;2023-04-16T04:05:27;4.97;;;2.83;;
19758;SDS011;10038;42.662;23.278;2023-04-16T04:07:54;4.73;;;2.97;;
19758;SDS011;10038;42.662;23.278;2023-04-16T04:10:21;5.70;;;3.83;;
19758;SDS011;10038;42.662;23.278;2023-04-16T04:12:49;7.70;;;4.27;;
19758;SDS011;10038;42.662;23.278;2023-04-16T04:15:16;5.93;;;3.33;;
19758;SDS011;10038;42.662;23.278;2023-04-16T04:17:43;6.30;;;4.03;;
19758;SDS011;10038;42.662;23.278;2023-04-16T04:20:11;4.43;;;3.10;;
19758;SDS011;10038;42.662;23.278;2023-04-16T04:22:38;8.37;;;3.70;;
19758;SDS011;10038;42.662;23.278;2023-04-16T04:25:05;6.50;;;4.13;;
19758;SDS011;10038;42.662;23.278;2023-04-16T04:27:32;9.33;;;3.70;;
19758;SDS011;10038;42.662;23.278;2023-04-16T04:30:01;6.70;;;2.90;;
19758;SDS011;10038;42.662;23.278;2023-04-16T04:32:29;6.27;;;3.80;;
19758;SDS011;10038;42.662;23.278;2023-04-16T04:34:56;5.73;;;3.50;;
19758;SDS011;10038;42.662;23.278;2023-04-16T04:37:23;4.07;;;3.20;;
19758;SDS011;10038;42.662;23.278;2023-04-16T04:39:50;5.57;;;4.10;;
19758;SDS011;10038;42.662;23.278;2023-04-16T04:42:17;6.97;;;3.57;;
19758;SDS011;10038;42.662;23.278;2023-04-16T04:44:44;11.97;;;4.20;;
19758;SDS011;10038;42.662;23.278;2023-04-16T04:47:13;5.00;;;3.83;;
19758;SDS011;10038;42.662;23.278;2023-04-16T04:49:40;8.23;;;3.87;;
19758;SDS011;10038;42.662;23.278;2023-04-16T04:52:07;6.20;;;4.27;;
19758;SDS011;10038;42.662;23.278;2023-04-16T04:54:35;5.87;;;3.60;;
19758;SDS011;10038;42.662;23.278;2023-04-16T04:57:05;4.33;;;3.83;;
19758;SDS011;10038;42.662;23.278;2023-04-16T04:59:32;8.23;;;4.67;;
19758;SDS011;10038;42.662;23.278;2023-04-16T05:01:59;7.10;;;3.97;;
19758;SDS011;10038;42.662;23.278;2023-04-16T05:04:28;10.03;;;4.17;;
19758;SDS011;10038;42.662;23.278;2023-04-16T05:06:56;6.63;;;4.63;;
19758;SDS011;10038;42.662;23.278;2023-04-16T05:09:23;15.20;;;5.03;;
19758;SDS011;10038;42.662;23.278;2023-04-16T05:11:50;5.87;;;4.00;;
19758;SDS011;10038;42.662;23.278;2023-04-16T05:14:17;7.80;;;4.90;;
19758;SDS011;10038;42.662;23.278;2023-04-16T05:16:44;9.53;;;4.97;;
19758;SDS011;10038;42.662;23.278;2023-04-16T05:19:11;7.87;;;4.80;;
19758;SDS011;10038;42.662;23.278;2023-04-16T05:21:40;9.70;;;5.47;;
19758;SDS011;10038;42.662;23.278;2023-04-16T05:24:07;6.10;;;4.50;;
19758;SDS011;10038;42.662;23.278;2023-04-16T05:26:34;9.90;;;5.60;;
19758;SDS011;10038;42.662;23.278;2023-04-16T05:29:01;12.20;;;6.10;;
19758;SDS011;10038;42.662;23.278;2023-04-16T05:31:28;7.73;;;4.93;;
19758;SDS011;10038;42.662;23.278;2023-04-16T05:33:55;11.93;;;5.30;;
19758;SDS011;10038;42.662;23.278;2023-04-16T05:36:22;10.10;;;6.00;;
19758;SDS011;10038;42.662;23.278;2023-04-16T05:38:50;12.50;;;5.80;;
19758;SDS011;10038;42.662;23.278;2023-04-16T05:41:17;12.37;;;5.53;;
19758;SDS011;10038;42.662;23.278;2023-04-16T05:43:44;7.67;;;5.00;;
19758;SDS011;10038;42.662;23.278;2023-04-16T05:46:11;9.57;;;6.23;;
19758;SDS011;10038;42.662;23.278;2023-04-16T05:48:38;8.53;;;5.40;;
19758;SDS011;10038;42.662;23.278;2023-04-16T05:51:05;9.63;;;6.00;;
19758;SDS011;10038;42.662;23.278;2023-04-16T05:53:32;7.57;;;5.97;;
19758;SDS011;10038;42.662;23.278;2023-04-16T05:56:00;9.10;;;5.40;;
19758;SDS011;10038;42.662;23.278;2023-04-16T05:58:27;10.40;;;6.20;;
19758;SDS011;10038;42.662;23.278;2023-04-16T06:00:54;7.70;;;5.40;;
19758;SDS011;10038;42.662;23.278;2023-04-16T06:03:21;7.00;;;5.67;;
19758;SDS011;10038;42.662;23.278;2023-04-16T06:05:48;9.47;;;5.70;;
19758;SDS011;10038;42.662;23.278;2023-04-16T06:08:15;10.60;;;6.17;;
19758;SDS011;10038;42.662;23.278;2023-04-16T06:10:42;20.60;;;10.00;;
19758;SDS011;10038;42.662;23.278;2023-04-16T06:13:12;15.97;;;9.17;;
19758;SDS011;10038;42.662;23.278;2023-04-16T06:15:39;13.80;;;6.13;;
19758;SDS011;10038;42.662;23.278;2023-04-16T06:18:06;11.13;;;5.67;;
19758;SDS011;10038;42.662;23.278;2023-04-16T06:20:33;13.13;;;6.20;;
19758;SDS011;10038;42.662;23.278;2023-04-16T06:23:00;8.13;;;5.90;;
19758;SDS011;10038;42.662;23.278;2023-04-16T06:25:27;10.00;;;5.30;;
19758;SDS011;10038;42.662;23.278;2023-04-16T06:27:54;10.33;;;5.33;;
19758;SDS011;10038;42.662;23.278;2023-04-16T06:30:23;9.00;;;5.80;;
19758;SDS011;10038;42.662;23.278;2023-04-16T06:32:50;9.37;;;5.97;;
19758;SDS011;10038;42.662;23.278;2023-04-16T06:35:18;11.93;;;6.90;;
19758;SDS011;10038;42.662;23.278;2023-04-16T06:37:45;8.90;;;5.90;;
19758;SDS011;10038;42.662;23.278;2023-04-16T06:40:12;8.43;;;6.80;;
19758;SDS011;10038;42.662;23.278;2023-04-16T06:42:39;14.17;;;7.37;;
19758;SDS011;10038;42.662;23.278;2023-04-16T06:45:07;8.27;;;6.93;;
19758;SDS011;10038;42.662;23.278;2023-04-16T06:47:36;13.03;;;7.77;;
19758;SDS011;10038;42.662;23.278;2023-04-16T06:50:03;16.20;;;7.80;;
19758;SDS011;10038;42.662;23.278;2023-04-16T06:52:31;14.73;;;7.90;;
19758;SDS011;10038;42.662;23.278;2023-04-16T06:54:58;9.50;;;7.60;;
19758;SDS011;10038;42.662;23.278;2023-04-16T06:57:25;10.80;;;7.00;;
19758;SDS011;10038;42.662;23.278;2023-04-16T06:59:52;13.63;;;9.00;;
19758;SDS011;10038;42.662;23.278;2023-04-16T07:02:19;11.27;;;8.53;;
19758;SDS011;10038;42.662;23.278;2023-04-16T07:04:48;19.63;;;7.90;;
19758;SDS011;10038;42.662;23.278;2023-04-16T07:07:16;15.47;;;7.87;;
19758;SDS011;10038;42.662;23.278;2023-04-16T07:09:43;10.10;;;6.97;;
19758;SDS011;10038;42.662;23.278;2023-04-16T07:12:10;13.23;;;7.47;;
19758;SDS011;10038;42.662;23.278;2023-04-16T07:14:37;12.53;;;7.80;;
19758;SDS011;10038;42.662;23.278;2023-04-16T07:17:04;10.77;;;8.93;;
19758;SDS011;10038;42.662;23.278;2023-04-16T07:19:31;12.83;;;7.87;;
19758;SDS011;10038;42.662;23.278;2023-04-16T07:22:00;10.03;;;7.00;;
19758;SDS011;10038;42.662;23.278;2023-04-16T07:24:28;12.33;;;8.60;;
19758;SDS011;10038;42.662;23.278;2023-04-16T07:26:55;12.33;;;7.47;;
19758;SDS011;10038;42.662;23.278;2023-04-16T07:29:22;12.07;;;7.63;;
19758;SDS011;10038;42.662;23.278;2023-04-16T07:31:49;13.00;;;7.27;;
19758;SDS011;10038;42.662;23.278;2023-04-16T07:34:17;10.73;;;7.13;;
19758;SDS011;10038;42.662;23.278;2023-04-16T07:36:44;11.30;;;7.97;;
19758;SDS011;10038;42.662;23.278;2023-04-16T07:39:12;10.53;;;7.33;;
19758;SDS011;10038;42.662;23.278;2023-04-16T07:41:39;9.70;;;6.70;;
19758;SDS011;10038;42.662;23.278;2023-04-16T07:44:06;11.00;;;6.43;;
19758;SDS011;10038;42.662;23.278;2023-04-16T07:46:34;10.13;;;7.67;;
19758;SDS011;10038;42.662;23.278;2023-04-16T07:49:01;11.17;;;6.60;;
19758;SDS011;10038;42.662;23.278;2023-04-16T07:51:28;12.57;;;7.83;;
19758;SDS011;10038;42.662;23.278;2023-04-16T07:53:55;9.53;;;6.30;;
19758;SDS011;10038;42.662;23.278;2023-04-16T07:56:24;15.00;;;6.90;;
19758;SDS011;10038;42.662;23.278;2023-04-16T07:58:51;10.37;;;6.33;;
19758;SDS011;10038;42.662;23.278;2023-04-16T08:01:18;9.00;;;5.97;;
19758;SDS011;10038;42.662;23.278;2023-04-16T08:03:45;8.60;;;5.83;;
19758;SDS011;10038;42.662;23.278;2023-04-16T08:06:12;7.90;;;5.10;;
19758;SDS011;10038;42.662;23.278;2023-04-16T08:08:39;10.60;;;5.10;;
19758;SDS011;10038;42.662;23.278;2023-04-16T08:11:07;9.97;;;4.80;;
19758;SDS011;10038;42.662;23.278;2023-04-16T08:13:35;6.13;;;4.27;;
19758;SDS011;10038;42.662;23.278;2023-04-16T08:16:02;5.60;;;4.23;;
19758;SDS011;10038;42.662;23.278;2023-04-16T08:18:30;5.77;;;3.90;;
19758;SDS011;10038;42.662;23.278;2023-04-16T08:20:57;7.70;;;4.43;;
19758;SDS011;10038;42.662;23.278;2023-04-16T08:23:24;8.90;;;4.70;;
19758;SDS011;10038;42.662;23.278;2023-04-16T08:25:51;7.47;;;4.00;;
19758;SDS011;10038;42.662;23.278;2023-04-16T08:28:18;6.87;;;4.40;;
19758;SDS011;10038;42.662;23.278;2023-04-16T08:30:46;6.20;;;4.00;;
19758;SDS011;10038;42.662;23.278;2023-04-16T08:33:13;5.87;;;3.73;;
19758;SDS011;10038;42.662;23.278;2023-04-16T08:35:40;4.37;;;3.53;;
19758;SDS011;10038;42.662;23.278;2023-04-16T08:38:07;4.73;;;4.07;;
19758;SDS011;10038;42.662;23.278;2023-04-16T08:40:34;6.10;;;4.00;;
19758;SDS011;10038;42.662;23.278;2023-04-16T08:43:06;6.60;;;3.80;;
19758;SDS011;10038;42.662;23.278;2023-04-16T08:45:36;3.30;;;2.97;;
19758;SDS011;10038;42.662;23.278;2023-04-16T08:48:05;3.40;;;2.57;;
19758;SDS011;10038;42.662;23.278;2023-04-16T08:50:32;4.53;;;2.37;;
19758;SDS011;10038;42.662;23.278;2023-04-16T08:53:02;6.03;;;2.50;;
19758;SDS011;10038;42.662;23.278;2023-04-16T08:55:33;2.73;;;2.53;;
19758;SDS011;10038;42.662;23.278;2023-04-16T08:58:03;3.50;;;2.53;;
19758;SDS011;10038;42.662;23.278;2023-04-16T09:00:34;4.80;;;3.30;;
19758;SDS011;10038;42.662;23.278;2023-04-16T09:03:06;5.23;;;3.47;;
19758;SDS011;10038;42.662;23.278;2023-04-16T09:05:34;4.07;;;3.13;;
19758;SDS011;10038;42.662;23.278;2023-04-16T09:08:01;7.07;;;3.20;;
19758;SDS011;10038;42.662;23.278;2023-04-16T09:10:29;3.83;;;2.80;;
19758;SDS011;10038;42.662;23.278;2023-04-16T09:12:57;5.33;;;3.20;;
19758;SDS011;10038;42.662;23.278;2023-04-16T09:15:24;3.80;;;2.30;;
19758;SDS011;10038;42.662;23.278;2023-04-16T09:17:51;3.10;;;2.17;;
19758;SDS011;10038;42.662;23.278;2023-04-16T09:20:22;9.83;;;2.87;;
19758;SDS011;10038;42.662;23.278;2023-04-16T09:22:49;7.67;;;2.67;;
19758;SDS011;10038;42.662;23.278;2023-04-16T09:25:16;3.97;;;2.60;;
19758;SDS011;10038;42.662;23.278;2023-04-16T09:27:47;4.10;;;2.73;;
19758;SDS011;10038;42.662;23.278;2023-04-16T09:30:18;4.47;;;2.70;;
19758;SDS011;10038;42.662;23.278;2023-04-16T09:32:47;5.50;;;2.50;;
19758;SDS011;10038;42.662;23.278;2023-04-16T09:35:15;5.30;;;3.10;;
19758;SDS011;10038;42.662;23.278;2023-04-16T09:37:46;4.13;;;2.50;;
19758;SDS011;10038;42.662;23.278;2023-04-16T09:40:25;5.80;;;3.00;;
19758;SDS011;10038;42.662;23.278;2023-04-16T09:42:55;4.67;;;2.70;;
19758;SDS011;10038;42.662;23.278;2023-04-16T09:45:23;2.33;;;2.10;;
19758;SDS011;10038;42.662;23.278;2023-04-16T09:47:50;3.10;;;1.80;;
19758;SDS011;10038;42.662;23.278;2023-04-16T09:50:17;4.57;;;2.00;;
19758;SDS011;10038;42.662;23.278;2023-04-16T09:52:48;2.40;;;2.00;;
19758;SDS011;10038;42.662;23.278;2023-04-16T09:55:16;4.43;;;1.47;;
19758;SDS011;10038;42.662;23.278;2023-04-16T09:57:48;2.23;;;1.83;;
19758;SDS011;10038;42.662;23.278;2023-04-16T10:00:24;3.30;;;3.00;;
19758;SDS011;10038;42.662;23.278;2023-04-16T10:02:55;2.50;;;1.70;;
19758;SDS011;10038;42.662;23.278;2023-04-16T10:05:29;6.17;;;2.50;;
19758;SDS011;10038;42.662;23.278;2023-04-16T10:08:23;4.83;;;2.00;;
19758;SDS011;10038;42.662;23.278;2023-04-16T10:10:50;5.67;;;2.63;;
19758;SDS011;10038;42.662;23.278;2023-04-16T10:13:19;5.63;;;2.70;;
19758;SDS011;10038;42.662;23.278;2023-04-16T10:15:46;4.33;;;2.10;;
19758;SDS011;10038;42.662;23.278;2023-04-16T10:18:14;5.50;;;2.80;;
19758;SDS011;10038;42.662;23.278;2023-04-16T10:20:41;3.03;;;2.20;;
19758;SDS011;10038;42.662;23.278;2023-04-16T10:23:09;3.33;;;1.93;;
19758;SDS011;10038;42.662;23.278;2023-04-16T10:25:38;4.20;;;2.30;;
19758;SDS011;10038;42.662;23.278;2023-04-16T10:28:07;6.13;;;2.73;;
19758;SDS011;10038;42.662;23.278;2023-04-16T10:30:35;5.27;;;2.20;;
19758;SDS011;10038;42.662;23.278;2023-04-16T10:33:03;3.23;;;2.10;;
19758;SDS011;10038;42.662;23.278;2023-04-16T10:35:31;3.27;;;2.17;;
19758;SDS011;10038;42.662;23.278;2023-04-16T10:38:02;2.70;;;2.13;;
19758;SDS011;10038;42.662;23.278;2023-04-16T10:40:48;4.23;;;2.10;;
19758;SDS011;10038;42.662;23.278;2023-04-16T10:43:16;3.33;;;2.70;;
19758;SDS011;10038;42.662;23.278;2023-04-16T10:45:45;8.53;;;2.90;;
19758;SDS011;10038;42.662;23.278;2023-04-16T10:48:13;5.30;;;2.80;;
19758;SDS011;10038;42.662;23.278;2023-04-16T10:50:52;9.03;;;2.47;;
19758;SDS011;10038;42.662;23.278;2023-04-16T10:53:24;2.60;;;2.30;;
19758;SDS011;10038;42.662;23.278;2023-04-16T10:56:10;3.10;;;2.40;;
19758;SDS011;10038;42.662;23.278;2023-04-16T10:58:38;2.73;;;1.80;;
19758;SDS011;10038;42.662;23.278;2023-04-16T11:01:11;5.90;;;2.40;;
19758;SDS011;10038;42.662;23.278;2023-04-16T11:03:41;5.77;;;2.73;;
19758;SDS011;10038;42.662;23.278;2023-04-16T11:06:09;9.00;;;2.67;;
19758;SDS011;10038;42.662;23.278;2023-04-16T11:08:37;3.50;;;2.37;;
19758;SDS011;10038;42.662;23.278;2023-04-16T11:11:05;3.57;;;2.20;;
19758;SDS011;10038;42.662;23.278;2023-04-16T11:13:34;4.63;;;2.50;;
19758;SDS011;10038;42.662;23.278;2023-04-16T11:16:02;2.87;;;2.13;;
19758;SDS011;10038;42.662;23.278;2023-04-16T11:18:30;3.73;;;2.70;;
19758;SDS011;10038;42.662;23.278;2023-04-16T11:23:51;2.77;;;2.30;;
19758;SDS011;10038;42.662;23.278;2023-04-16T11:26:19;4.50;;;2.47;;
19758;SDS011;10038;42.662;23.278;2023-04-16T11:28:49;5.00;;;2.93;;
19758;SDS011;10038;42.662;23.278;2023-04-16T11:31:16;3.30;;;2.10;;
19758;SDS011;10038;42.662;23.278;2023-04-16T11:33:43;3.37;;;2.40;;
19758;SDS011;10038;42.662;23.278;2023-04-16T11:36:10;5.50;;;2.43;;
19758;SDS011;10038;42.662;23.278;2023-04-16T11:38:37;3.40;;;2.13;;
19758;SDS011;10038;42.662;23.278;2023-04-16T11:41:07;5.97;;;2.60;;
19758;SDS011;10038;42.662;23.278;2023-04-16T11:43:34;6.10;;;2.50;;
19758;SDS011;10038;42.662;23.278;2023-04-16T11:46:03;6.83;;;2.87;;
19758;SDS011;10038;42.662;23.278;2023-04-16T11:48:45;4.47;;;2.70;;
19758;SDS011;10038;42.662;23.278;2023-04-16T11:51:13;3.03;;;2.50;;
19758;SDS011;10038;42.662;23.278;2023-04-16T11:53:47;5.93;;;3.20;;
19758;SDS011;10038;42.662;23.278;2023-04-16T11:56:14;6.50;;;2.83;;
19758;SDS011;10038;42.662;23.278;2023-04-16T11:58:42;2.30;;;2.10;;
19758;SDS011;10038;42.662;23.278;2023-04-16T12:01:10;4.00;;;2.30;;
19758;SDS011;10038;42.662;23.278;2023-04-16T12:03:39;6.60;;;2.97;;
19758;SDS011;10038;42.662;23.278;2023-04-16T12:06:10;5.93;;;2.40;;
19758;SDS011;10038;42.662;23.278;2023-04-16T12:08:37;3.00;;;2.70;;
19758;SDS011;10038;42.662;23.278;2023-04-16T12:11:04;2.40;;;2.10;;
19758;SDS011;10038;42.662;23.278;2023-04-16T12:13:31;3.47;;;2.40;;
19758;SDS011;10038;42.662;23.278;2023-04-16T12:16:11;4.17;;;2.40;;
19758;SDS011;10038;42.662;23.278;2023-04-16T12:19:00;4.73;;;2.27;;
19758;SDS011;10038;42.662;23.278;2023-04-16T12:21:38;3.67;;;2.13;;
19758;SDS011;10038;42.662;23.278;2023-04-16T12:24:06;4.57;;;2.50;;
19758;SDS011;10038;42.662;23.278;2023-04-16T12:26:37;3.33;;;2.67;;
19758;SDS011;10038;42.662;23.278;2023-04-16T12:29:18;5.67;;;2.50;;
19758;SDS011;10038;42.662;23.278;2023-04-16T12:31:48;3.30;;;1.80;;
19758;SDS011;10038;42.662;23.278;2023-04-16T12:34:16;2.90;;;2.17;;
19758;SDS011;10038;42.662;23.278;2023-04-16T12:36:44;6.13;;;2.50;;
19758;SDS011;10038;42.662;23.278;2023-04-16T12:39:12;8.00;;;2.30;;
19758;SDS011;10038;42.662;23.278;2023-04-16T12:41:40;5.13;;;2.77;;
19758;SDS011;10038;42.662;23.278;2023-04-16T12:44:09;3.47;;;2.13;;
19758;SDS011;10038;42.662;23.278;2023-04-16T12:46:38;4.40;;;2.30;;
19758;SDS011;10038;42.662;23.278;2023-04-16T12:49:07;4.30;;;2.50;;
19758;SDS011;10038;42.662;23.278;2023-04-16T12:51:35;5.30;;;2.40;;
19758;SDS011;10038;42.662;23.278;2023-04-16T12:54:04;5.67;;;2.50;;
19758;SDS011;10038;42.662;23.278;2023-04-16T12:56:32;2.97;;;2.10;;
19758;SDS011;10038;42.662;23.278;2023-04-16T12:58:59;3.63;;;2.00;;
19758;SDS011;10038;42.662;23.278;2023-04-16T13:01:27;2.83;;;2.27;;
19758;SDS011;10038;42.662;23.278;2023-04-16T13:03:54;3.20;;;2.00;;
19758;SDS011;10038;42.662;23.278;2023-04-16T13:06:22;2.83;;;1.80;;
19758;SDS011;10038;42.662;23.278;2023-04-16T13:08:50;3.90;;;3.40;;
19758;SDS011;10038;42.662;23.278;2023-04-16T13:11:17;7.30;;;2.40;;
19758;SDS011;10038;42.662;23.278;2023-04-16T13:13:44;3.53;;;2.20;;
19758;SDS011;10038;42.662;23.278;2023-04-16T13:16:11;3.03;;;2.73;;
19758;SDS011;10038;42.662;23.278;2023-04-16T13:18:38;3.30;;;2.33;;
19758;SDS011;10038;42.662;23.278;2023-04-16T13:21:05;8.40;;;2.30;;
19758;SDS011;10038;42.662;23.278;2023-04-16T13:23:33;4.13;;;2.17;;
19758;SDS011;10038;42.662;23.278;2023-04-16T13:26:00;4.13;;;2.10;;
19758;SDS011;10038;42.662;23.278;2023-04-16T13:28:27;3.53;;;2.23;;
19758;SDS011;10038;42.662;23.278;2023-04-16T13:30:54;2.30;;;1.97;;
19758;SDS011;10038;42.662;23.278;2023-04-16T13:33:21;5.27;;;2.00;;
19758;SDS011;10038;42.662;23.278;2023-04-16T13:35:48;5.57;;;2.20;;
19758;SDS011;10038;42.662;23.278;2023-04-16T13:38:15;3.43;;;2.00;;
19758;SDS011;10038;42.662;23.278;2023-04-16T13:40:44;3.40;;;2.13;;
19758;SDS011;10038;42.662;23.278;2023-04-16T13:43:11;4.27;;;2.37;;
19758;SDS011;10038;42.662;23.278;2023-04-16T13:45:40;6.93;;;2.87;;
19758;SDS011;10038;42.662;23.278;2023-04-16T13:48:07;7.30;;;3.63;;
19758;SDS011;10038;42.662;23.278;2023-04-16T13:50:35;6.83;;;3.33;;
19758;SDS011;10038;42.662;23.278;2023-04-16T13:53:01;8.80;;;5.73;;
19758;SDS011;10038;42.662;23.278;2023-04-16T13:55:29;6.33;;;4.40;;
19758;SDS011;10038;42.662;23.278;2023-04-16T13:58:01;4.80;;;3.60;;
19758;SDS011;10038;42.662;23.278;2023-04-16T14:00:28;6.67;;;5.10;;
19758;SDS011;10038;42.662;23.278;2023-04-16T14:02:59;6.00;;;4.40;;
19758;SDS011;10038;42.662;23.278;2023-04-16T14:05:28;4.17;;;3.80;;
19758;SDS011;10038;42.662;23.278;2023-04-16T14:07:55;6.63;;;4.00;;
19758;SDS011;10038;42.662;23.278;2023-04-16T14:10:22;9.87;;;4.00;;
19758;SDS011;10038;42.662;23.278;2023-04-16T14:28:08;7.20;;;3.90;;
19758;SDS011;10038;42.662;23.278;2023-04-16T14:30:35;6.33;;;4.43;;
19758;SDS011;10038;42.662;23.278;2023-04-16T14:33:03;5.23;;;3.80;;
19758;SDS011;10038;42.662;23.278;2023-04-16T14:35:36;4.50;;;3.80;;
19758;SDS011;10038;42.662;23.278;2023-04-16T14:38:03;3.30;;;2.80;;
19758;SDS011;10038;42.662;23.278;2023-04-16T14:40:31;4.90;;;3.80;;
19758;SDS011;10038;42.662;23.278;2023-04-16T15:03:36;17.77;;;12.30;;
19758;SDS011;10038;42.662;23.278;2023-04-16T15:06:06;12.60;;;9.80;;
19758;SDS011;10038;42.662;23.278;2023-04-16T15:11:40;12.83;;;7.40;;
19758;SDS011;10038;42.662;23.278;2023-04-16T15:14:10;25.83;;;12.17;;
19758;SDS011;10038;42.662;23.278;2023-04-16T15:16:37;9.70;;;7.50;;
19758;SDS011;10038;42.662;23.278;2023-04-16T15:19:06;8.40;;;5.50;;
19758;SDS011;10038;42.662;23.278;2023-04-16T15:21:33;9.90;;;5.60;;